메인 페이지
METAR-TAF:

METAR-TAF

공항 :

텔아비브 / 벤구리온, 이스라엘

벤구리온 국제공항

위도: 32-00N, 경도: 034-54E, 고도: 40m

현재 날씨관측

예보는 18분 전, 09:20시(UTC)에 발표되었습니다.
남남서18kt
온도 18°C
습도 49%
기압 1012 hPa
시정 10km 이상
고도 3000ft 상공 구름 조금

METAR: LLBG 180920Z 21018KT 9999 FEW030 18/07 Q1012 TEMPO 21020KT

시각: 11:38 (09:38 UTC)

예보

예보는 4 시간 36분 전, 05:02시(UTC)에 발표되었습니다.
예보 대상 시간: 18일 06시부터 19일 06시까지 (UTC)
10kt
시정 10km 이상
고도 4000ft 상공 구름 보통
전환 중
18일 10시부터 18일 13시까지 (UTC)
남남서18kt
일시적
18일 13시부터 18일 20시까지 (UTC)
남남서18kt, 순간 최대 풍속 28kt
시정: 6000m
18일 2000시부터 (UTC)
20kt
시정: 7000m
고도 2000ft 상공 구름 조금, 타워링 적운.
고도 3000ft 상공 구름 많음
일시적
18일 20시부터 19일 06시까지 (UTC)
24kt, 순간 최대 풍속 34kt
시정: 4000m
고도 1800ft 상공 구름 조금, 적란운.
고도 2500ft 상공 구름 많음
뇌우, 비

TAF: LLBG 180502Z 1806/1906 18010KT 9999 SCT040 BECMG 1810/1813 20018KT TEMPO 1813/1820 20018G28KT 6000 NSC FM182000 28020KT 7000 RA FEW020TCU BKN030 TEMPO 1820/1906 28024G34KT 4000 TSRA FEW018CB BKN025 TX19/1812Z TN11/1904Z

4,000개 이상의 공항 관측 자료 및 예보 (METAR 및 TAF 보고).

지도상에서 검색 가능한 기상관측소가 노란 점과 빨간 점으로 표시되어 있습니다.

기상관측소 명을 보려면 표시 위로 마우스를 이동하세요.

날씨 관측과 예보를 보려면 클릭하세요.

지도 변경 : 확대하려면 엑스 표시가 있는 녹색 버튼, 축소하려면 빼기 표시가 있는 녹색 버튼, 다음 페이지의 지도를 보려면 녹색 화살표를 클릭하세요.


METAR-TAF: